Time;durP1;ratioP1;P1;durP2;ratioP2;P2;SDS_P1;SDS_P2;PMS_P1;PMS_P2;Temp;Humidity;BMP_temperature;BMP_pressure;BME280_temperature;BME280_humidity;BME280_pressure;Samples;Min_cycle;Max_cycle;Signal;HPM_P1;HPM_P2
2022/01/31 00:00:25;;;;;;;;;;;;;;;5.50;67.50;98934.45;1751361;80;20168;-77
2022/01/31 00:02:50;;;;;;;;;;;;;;;5.75;66.99;98957.67;1733944;81;20188;-78
2022/01/31 00:05:16;;;;;;;;;;;;;;;5.61;67.83;98945.16;1746868;81;20478;-78
2022/01/31 00:07:42;;;;;;;;;;;;;;;5.56;68.29;98953.94;1755011;81;21130;-79
2022/01/31 00:10:10;;;;;;;;;;;;;;;5.47;68.79;98987.58;1746853;81;20167;-79
2022/01/31 00:12:49;;;;;;;;;;;;;;;5.60;68.52;98971.00;1744175;81;20134;-80
2022/01/31 00:15:05;;;;;;;;;;;;;;;5.52;69.04;98951.31;1745250;79;20116;-78
2022/01/31 00:17:30;;;;;;;;;;;;;;;5.44;68.81;98959.09;1751050;81;20181;-78
2022/01/31 00:19:56;;;;;;;;;;;;;;;5.37;68.46;98981.14;1748497;81;21096;-79
2022/01/31 00:22:21;;;;;;;;;;;;;;;5.36;68.24;98958.07;1746459;81;20354;-78
2022/01/31 00:24:47;;;;;;;;;;;;;;;5.69;67.56;98943.89;1746657;80;20124;-78
2022/01/31 00:27:12;;;;;;;;;;;;;;;5.48;67.18;99062.55;1735896;81;20147;-78
2022/01/31 00:29:38;;;;;;;;;;;;;;;5.42;67.64;99001.63;1741950;81;20146;-79
2022/01/31 00:32:04;;;;;;;;;;;;;;;5.24;68.41;98981.53;1751967;81;21170;-79
2022/01/31 00:34:30;;;;;;;;;;;;;;;5.44;68.18;98980.03;1739397;81;20248;-79
2022/01/31 00:36:56;;;;;;;;;;;;;;;5.23;69.48;98975.95;1745482;81;20435;-78
2022/01/31 00:39:22;;;;;;;;;;;;;;;4.95;70.17;98985.67;1748160;81;20490;-78
2022/01/31 00:41:48;;;;;;;;;;;;;;;5.49;69.12;98963.40;1745384;81;20198;-78
2022/01/31 00:44:20;;;;;;;;;;;;;;;5.43;68.97;98982.34;1749545;81;21951;-78
2022/01/31 00:46:51;;;;;;;;;;;;;;;5.50;68.75;98972.87;1741030;81;21014;-78
2022/01/31 00:49:23;;;;;;;;;;;;;;;5.48;68.88;98984.81;1734802;81;20156;-77
2022/01/31 00:51:40;;;;;;;;;;;;;;;5.54;68.95;98982.89;1738780;81;20155;-79
2022/01/31 00:54:06;;;;;;;;;;;;;;;5.51;68.87;98979.77;1743258;81;20599;-81
2022/01/31 00:56:32;;;;;;;;;;;;;;;5.36;69.39;98979.48;1738588;81;20916;-77
2022/01/31 00:58:57;;;;;;;;;;;;;;;5.44;69.56;98972.18;1732920;81;20719;-77
2022/01/31 01:01:23;;;;;;;;;;;;;;;5.46;69.67;98978.11;1728122;82;20192;-77
2022/01/31 01:03:48;;;;;;;;;;;;;;;5.32;70.54;98968.50;1727907;82;20147;-77
2022/01/31 01:06:14;;;;;;;;;;;;;;;5.53;70.43;98984.36;1731915;80;20187;-77
2022/01/31 01:08:39;;;;;;;;;;;;;;;5.30;70.62;98978.31;1729003;82;21101;-77
2022/01/31 01:11:05;;;;;;;;;;;;;;;5.42;69.96;98963.16;1727820;82;20721;-78
2022/01/31 01:13:31;;;;;;;;;;;;;;;5.32;70.02;98995.98;1733952;82;20146;-80
2022/01/31 01:15:56;;;;;;;;;;;;;;;5.37;69.30;99002.89;1727574;82;20166;-80
2022/01/31 01:18:22;;;;;;;;;;;;;;;5.42;69.45;98997.70;1728769;82;20181;-80
2022/01/31 01:20:47;;;;;;;;;;;;;;;5.23;69.44;98996.89;1731953;82;21153;-77
2022/01/31 01:23:13;;;;;;;;;;;;;;;5.33;69.00;98993.72;1729584;82;20164;-78
2022/01/31 01:25:39;;;;;;;;;;;;;;;5.40;68.46;99011.75;1725851;82;20148;-80
2022/01/31 01:28:04;;;;;;;;;;;;;;;5.50;66.86;99006.92;1727552;82;20160;-77
2022/01/31 01:30:30;;;;;;;;;;;;;;;5.53;66.23;99014.00;1732305;82;20184;-80
2022/01/31 01:33:17;;;;;;;;;;;;;;;5.47;66.82;99000.67;1727750;82;21187;-77
2022/01/31 01:35:34;;;;;;;;;;;;;;;5.29;67.49;99002.83;1729408;81;20147;-78
2022/01/31 01:38:05;;;;;;;;;;;;;;;5.28;67.47;99016.88;1727624;82;20192;-78
2022/01/31 01:40:28;;;;;;;;;;;;;;;5.54;66.96;98986.02;1729135;82;20177;-80
2022/01/31 01:42:53;;;;;;;;;;;;;;;5.33;65.78;99042.14;1730931;82;20240;-77
2022/01/31 01:45:19;;;;;;;;;;;;;;;5.16;65.76;99035.12;1728818;82;21143;-77
2022/01/31 01:47:44;;;;;;;;;;;;;;;5.30;64.91;99035.90;1731284;82;20161;-77
2022/01/31 01:50:10;;;;;;;;;;;;;;;5.34;64.50;99044.27;1726077;82;20178;-77
2022/01/31 01:52:35;;;;;;;;;;;;;;;5.25;64.08;99046.00;1730637;82;20141;-80
2022/01/31 01:55:01;;;;;;;;;;;;;;;5.41;63.01;99037.47;1734427;82;20170;-80
2022/01/31 01:57:28;;;;;;;;;;;;;;;5.33;62.40;99025.13;1725048;81;21058;-78
2022/01/31 01:59:56;;;;;;;;;;;;;;;5.38;62.41;99001.11;1730506;82;20175;-79
2022/01/31 02:02:21;;;;;;;;;;;;;;;5.34;62.13;99025.94;1728461;82;20136;-79
2022/01/31 02:04:47;;;;;;;;;;;;;;;5.36;61.68;99057.55;1736044;80;20208;-79
2022/01/31 02:07:12;;;;;;;;;;;;;;;5.21;61.73;99042.03;1728752;82;20172;-80
2022/01/31 02:09:51;;;;;;;;;;;;;;;5.34;61.42;99011.05;1735790;82;21203;-77
2022/01/31 02:12:11;;;;;;;;;;;;;;;5.23;61.72;99014.40;1726906;82;20163;-79
2022/01/31 02:14:37;;;;;;;;;;;;;;;5.30;61.46;99012.34;1733758;82;20255;-79
2022/01/31 02:17:03;;;;;;;;;;;;;;;5.34;61.39;99021.52;1729858;82;20247;-79
2022/01/31 02:19:29;;;;;;;;;;;;;;;5.50;60.81;99000.38;1729209;82;20496;-78
2022/01/31 02:21:54;;;;;;;;;;;;;;;5.52;60.94;98998.45;1732476;81;21064;-79
2022/01/31 02:24:20;;;;;;;;;;;;;;;5.54;60.64;99014.31;1728631;81;20157;-79
2022/01/31 02:26:45;;;;;;;;;;;;;;;5.44;60.72;99010.98;1733365;82;20162;-79
2022/01/31 02:29:11;;;;;;;;;;;;;;;5.61;60.69;99001.46;1728055;82;20138;-79
2022/01/31 02:31:39;;;;;;;;;;;;;;;5.71;60.83;98994.31;1730646;82;20346;-78
2022/01/31 02:34:04;;;;;;;;;;;;;;;5.66;60.96;99009.67;1734290;80;21009;-80
2022/01/31 02:36:30;;;;;;;;;;;;;;;5.71;61.54;99024.44;1732263;82;20195;-80
2022/01/31 02:38:55;;;;;;;;;;;;;;;5.59;62.88;99006.01;1724624;82;20179;-79
2022/01/31 02:41:21;;;;;;;;;;;;;;;5.86;63.38;99012.11;1725890;82;20140;-78
2022/01/31 02:43:50;;;;;;;;;;;;;;;5.78;65.58;99000.25;1736132;82;20267;-78
2022/01/31 02:46:14;;;;;;;;;;;;;;;5.51;66.46;99007.27;1734425;80;20163;-79
2022/01/31 02:48:40;;;;;;;;;;;;;;;5.50;66.93;98996.45;1740130;82;20154;-79
2022/01/31 02:51:09;;;;;;;;;;;;;;;5.42;67.98;98999.01;1730560;82;20489;-79
2022/01/31 02:53:40;;;;;;;;;;;;;;;5.37;68.54;98997.66;1736990;81;20193;-79
2022/01/31 02:56:01;;;;;;;;;;;;;;;5.39;70.33;98998.34;1708785;82;20194;-78
2022/01/31 02:58:28;;;;;;;;;;;;;;;5.37;71.09;99002.89;1727797;81;21075;-78
2022/01/31 03:00:56;;;;;;;;;;;;;;;5.32;71.71;98994.67;1728442;81;20168;-79
2022/01/31 03:03:21;;;;;;;;;;;;;;;5.52;71.85;98986.66;1729386;82;20562;-78
2022/01/31 03:05:47;;;;;;;;;;;;;;;5.13;73.27;98979.16;1731160;81;21670;-78
2022/01/31 03:08:12;;;;;;;;;;;;;;;5.26;73.70;98987.42;1726435;81;20160;-78
2022/01/31 03:10:38;;;;;;;;;;;;;;;5.07;75.10;98983.67;1728246;81;21123;-78
2022/01/31 03:13:03;;;;;;;;;;;;;;;5.11;75.22;98995.00;1729728;81;20490;-79
2022/01/31 03:15:29;;;;;;;;;;;;;;;5.04;75.20;98970.39;1726272;82;20238;-78
2022/01/31 03:17:55;;;;;;;;;;;;;;;4.84;75.70;98980.17;1725496;82;20136;-78
2022/01/31 03:20:21;;;;;;;;;;;;;;;4.85;75.62;98966.14;1725193;81;20158;-78
2022/01/31 03:22:47;;;;;;;;;;;;;;;4.85;75.03;98958.29;1729202;81;22124;-78
2022/01/31 03:25:13;;;;;;;;;;;;;;;4.94;74.29;98963.09;1726422;82;20122;-78
2022/01/31 03:27:38;;;;;;;;;;;;;;;4.72;74.17;99008.31;1730880;82;20162;-77
2022/01/31 03:30:07;;;;;;;;;;;;;;;4.82;73.80;98972.97;1724109;82;21195;-77
2022/01/31 03:32:32;;;;;;;;;;;;;;;4.77;74.00;98975.19;1729385;81;20236;-77
2022/01/31 03:34:58;;;;;;;;;;;;;;;4.76;74.01;98981.41;1727652;81;21148;-79
2022/01/31 03:37:24;;;;;;;;;;;;;;;4.61;74.34;98979.27;1729274;82;20737;-78
2022/01/31 03:39:49;;;;;;;;;;;;;;;4.89;73.96;98984.96;1727602;82;20243;-77
2022/01/31 03:42:18;;;;;;;;;;;;;;;4.90;74.11;99004.44;1733755;82;20162;-79
2022/01/31 03:44:43;;;;;;;;;;;;;;;5.15;72.91;99003.37;1730110;82;20176;-78
2022/01/31 03:47:09;;;;;;;;;;;;;;;5.07;73.35;99016.38;1734115;82;21038;-79
2022/01/31 03:49:34;;;;;;;;;;;;;;;5.34;72.47;98985.36;1728688;81;20135;-78
2022/01/31 03:52:00;;;;;;;;;;;;;;;4.92;73.35;98982.86;1732860;81;20154;-77
2022/01/31 03:54:25;;;;;;;;;;;;;;;4.82;74.03;98976.89;1727700;81;20111;-79
2022/01/31 03:56:51;;;;;;;;;;;;;;;4.64;73.99;98980.28;1730681;81;20291;-80
2022/01/31 03:59:17;;;;;;;;;;;;;;;4.68;73.75;98994.72;1732103;81;21153;-80
2022/01/31 04:01:42;;;;;;;;;;;;;;;4.33;74.99;98992.84;1729565;82;20244;-80
2022/01/31 04:04:10;;;;;;;;;;;;;;;4.60;73.78;98999.88;1728690;82;20196;-79
2022/01/31 04:06:35;;;;;;;;;;;;;;;4.61;73.31;98987.12;1728783;80;20186;-79
2022/01/31 04:09:01;;;;;;;;;;;;;;;4.62;73.39;98974.39;1735779;80;20138;-80
2022/01/31 04:11:26;;;;;;;;;;;;;;;4.67;73.45;98986.53;1729664;82;21131;-80
2022/01/31 04:13:52;;;;;;;;;;;;;;;4.80;73.34;98976.20;1730143;82;20167;-77
2022/01/31 04:16:17;;;;;;;;;;;;;;;4.66;73.67;98980.98;1731546;81;20493;-80
2022/01/31 04:18:43;;;;;;;;;;;;;;;4.38;74.95;99018.55;1733805;82;20165;-77
2022/01/31 04:21:08;;;;;;;;;;;;;;;4.38;75.27;98971.03;1734817;82;20160;-80
2022/01/31 04:23:34;;;;;;;;;;;;;;;4.60;74.56;98968.50;1730134;81;21086;-80
2022/01/31 04:26:09;;;;;;;;;;;;;;;4.27;75.62;98968.13;1732199;82;20346;-80
2022/01/31 04:28:32;;;;;;;;;;;;;;;4.34;75.81;98974.09;1730095;82;20148;-80
2022/01/31 04:33:23;;;;;;;;;;;;;;;4.31;76.38;99015.20;1726561;82;20133;-80
2022/01/31 04:35:48;;;;;;;;;;;;;;;4.30;76.52;98999.20;1737861;82;20980;-80
2022/01/31 04:38:14;;;;;;;;;;;;;;;4.19;76.70;98973.23;1730221;82;20216;-80
2022/01/31 04:40:39;;;;;;;;;;;;;;;4.26;76.33;98997.02;1727999;82;20172;-80
2022/01/31 04:43:05;;;;;;;;;;;;;;;4.35;76.46;99002.69;1727243;82;20476;-80
2022/01/31 04:45:31;;;;;;;;;;;;;;;4.33;76.45;99011.63;1726337;82;20266;-80
2022/01/31 04:47:57;;;;;;;;;;;;;;;4.40;75.83;98998.34;1730193;82;21166;-80
2022/01/31 04:50:22;;;;;;;;;;;;;;;4.14;76.99;99004.20;1732142;81;20167;-80
2022/01/31 04:52:48;;;;;;;;;;;;;;;4.24;76.50;98994.55;1727185;82;20143;-80
2022/01/31 04:55:13;;;;;;;;;;;;;;;4.54;75.69;98995.23;1726583;82;20755;-77
2022/01/31 04:57:39;;;;;;;;;;;;;;;4.07;76.92;99000.05;1734220;82;20160;-80
2022/01/31 05:00:06;;;;;;;;;;;;;;;4.29;76.25;99015.84;1725099;80;21169;-80
2022/01/31 05:02:32;;;;;;;;;;;;;;;4.28;76.11;99003.73;1727213;82;20244;-79
2022/01/31 05:04:58;;;;;;;;;;;;;;;4.14;76.48;99007.63;1730897;82;20193;-80
2022/01/31 05:07:23;;;;;;;;;;;;;;;4.15;76.00;99005.86;1722288;82;20136;-80
2022/01/31 05:09:49;;;;;;;;;;;;;;;3.89;77.11;99023.45;1730428;82;20691;-80
2022/01/31 05:12:15;;;;;;;;;;;;;;;4.23;76.41;98992.08;1722973;81;21788;-80
2022/01/31 05:14:40;;;;;;;;;;;;;;;4.21;75.96;98984.39;1725572;82;20167;-80
2022/01/31 05:17:06;;;;;;;;;;;;;;;4.03;76.84;98990.84;1729224;82;20496;-79
2022/01/31 05:19:32;;;;;;;;;;;;;;;3.94;77.06;99001.64;1726965;82;20820;-79
2022/01/31 05:21:57;;;;;;;;;;;;;;;4.02;76.98;98987.06;1728277;82;20172;-80
2022/01/31 05:24:23;;;;;;;;;;;;;;;4.18;76.61;98982.06;1727759;82;21100;-79
2022/01/31 05:26:50;;;;;;;;;;;;;;;4.35;75.96;98983.09;1738393;82;20382;-79
2022/01/31 05:29:18;;;;;;;;;;;;;;;4.02;76.90;99006.66;1722517;79;20155;-81
2022/01/31 05:31:43;;;;;;;;;;;;;;;3.95;77.51;98985.02;1727350;82;20200;-79
2022/01/31 05:34:09;;;;;;;;;;;;;;;4.07;77.25;98982.22;1724496;82;20171;-79
2022/01/31 05:36:35;;;;;;;;;;;;;;;3.90;77.60;98976.80;1735282;82;21086;-80
2022/01/31 05:39:00;;;;;;;;;;;;;;;4.20;76.57;98976.20;1728275;82;20160;-80
2022/01/31 05:41:26;;;;;;;;;;;;;;;3.73;78.30;98986.19;1728266;82;20188;-79
2022/01/31 05:43:52;;;;;;;;;;;;;;;3.88;77.87;98956.51;1725605;80;20686;-80
2022/01/31 05:46:17;;;;;;;;;;;;;;;3.86;78.06;98961.55;1732767;81;20184;-80
2022/01/31 05:48:43;;;;;;;;;;;;;;;4.00;77.26;98957.16;1727227;82;21079;-80
2022/01/31 05:51:12;;;;;;;;;;;;;;;3.61;78.54;98982.09;1732621;82;20193;-79
2022/01/31 05:53:38;;;;;;;;;;;;;;;3.85;78.12;98967.23;1733753;80;20220;-79
2022/01/31 05:56:04;;;;;;;;;;;;;;;3.93;77.67;98990.88;1726536;82;20502;-78
2022/01/31 05:58:30;;;;;;;;;;;;;;;3.69;78.44;98966.53;1734354;81;20172;-79
2022/01/31 06:00:55;;;;;;;;;;;;;;;3.78;78.22;98958.34;1751212;81;20988;-79
2022/01/31 06:03:21;;;;;;;;;;;;;;;3.57;78.82;98981.55;1749010;81;20138;-79
2022/01/31 06:05:46;;;;;;;;;;;;;;;3.60;78.69;98979.13;1754255;81;20156;-78
2022/01/31 06:08:12;;;;;;;;;;;;;;;3.73;78.44;98968.41;1755039;80;20182;-79
2022/01/31 06:10:42;;;;;;;;;;;;;;;3.94;77.68;98959.86;1751202;81;20593;-78
2022/01/31 06:13:05;;;;;;;;;;;;;;;3.81;77.66;98968.51;1753464;81;20160;-78
2022/01/31 06:15:30;;;;;;;;;;;;;;;3.90;77.86;98980.72;1755462;81;20140;-78
2022/01/31 06:17:56;;;;;;;;;;;;;;;3.75;78.28;98984.25;1749271;81;20218;-78
2022/01/31 06:20:22;;;;;;;;;;;;;;;3.81;78.22;98969.81;1754842;81;20529;-78
2022/01/31 06:22:48;;;;;;;;;;;;;;;3.81;78.41;98961.98;1747833;81;20123;-78
2022/01/31 06:25:14;;;;;;;;;;;;;;;3.66;78.69;98971.22;1754069;81;21990;-78
2022/01/31 06:27:40;;;;;;;;;;;;;;;3.64;78.69;98974.47;1752434;80;20193;-78
2022/01/31 06:30:06;;;;;;;;;;;;;;;3.76;77.98;98965.02;1754022;81;20140;-78
2022/01/31 06:32:32;;;;;;;;;;;;;;;3.70;78.68;98956.94;1749414;81;20182;-79
2022/01/31 06:34:58;;;;;;;;;;;;;;;3.64;78.70;98953.58;1745013;80;20154;-78
2022/01/31 06:37:23;;;;;;;;;;;;;;;3.69;78.14;98989.22;1748007;81;21041;-78
2022/01/31 06:39:49;;;;;;;;;;;;;;;3.64;78.33;98954.39;1756575;81;20219;-78
2022/01/31 06:42:15;;;;;;;;;;;;;;;3.58;78.13;98963.60;1751655;81;20142;-78
2022/01/31 06:44:41;;;;;;;;;;;;;;;3.68;78.09;98954.92;1748035;81;20159;-78
2022/01/31 06:47:06;;;;;;;;;;;;;;;3.69;78.03;98959.19;1750212;81;20441;-79
2022/01/31 06:49:32;;;;;;;;;;;;;;;3.68;77.82;98945.79;1751927;81;21175;-77
2022/01/31 06:51:58;;;;;;;;;;;;;;;4.23;76.00;98941.13;1754956;81;20154;-78
2022/01/31 06:54:23;;;;;;;;;;;;;;;3.82;76.80;98964.09;1751135;81;20456;-78
2022/01/31 06:56:49;;;;;;;;;;;;;;;3.91;76.43;98942.34;1755222;81;20130;-78
2022/01/31 06:59:14;;;;;;;;;;;;;;;3.85;76.47;98955.48;1746281;81;20166;-79
2022/01/31 07:01:40;;;;;;;;;;;;;;;3.86;76.76;98942.78;1727639;81;21091;-78
2022/01/31 07:04:05;;;;;;;;;;;;;;;3.74;76.67;98949.14;1732331;81;20156;-79
2022/01/31 07:06:31;;;;;;;;;;;;;;;3.78;76.70;98951.81;1731463;81;20164;-79
2022/01/31 07:08:59;;;;;;;;;;;;;;;4.05;75.45;98950.20;1728879;82;20206;-79
2022/01/31 07:11:27;;;;;;;;;;;;;;;3.86;76.02;98944.08;1728897;82;20166;-79
2022/01/31 07:14:29;;;;;;;;;;;;;;;3.69;76.52;98944.83;1729776;82;20087;-80
2022/01/31 07:16:31;;;;;;;;;;;;;;;4.07;75.44;98953.48;1724200;81;20116;-79
2022/01/31 07:19:06;;;;;;;;;;;;;;;3.91;76.09;98948.87;1726899;81;20757;-79
2022/01/31 07:21:36;;;;;;;;;;;;;;;3.75;76.09;98959.44;1731315;82;20172;-79
2022/01/31 07:24:16;;;;;;;;;;;;;;;3.81;76.38;98954.14;1728059;81;20492;-79
2022/01/31 07:26:30;;;;;;;;;;;;;;;4.01;76.07;98946.22;1726660;82;20703;-80
2022/01/31 07:28:56;;;;;;;;;;;;;;;3.94;76.17;98959.86;1725491;82;20173;-79
2022/01/31 07:31:22;;;;;;;;;;;;;;;3.74;76.96;98956.51;1733161;81;20158;-78
2022/01/31 07:33:47;;;;;;;;;;;;;;;4.06;76.34;98957.09;1732411;82;20691;-78
2022/01/31 07:36:13;;;;;;;;;;;;;;;3.84;76.52;98953.02;1727653;81;20156;-80
2022/01/31 07:38:38;;;;;;;;;;;;;;;3.85;76.70;98963.32;1725312;82;21145;-78
2022/01/31 07:41:04;;;;;;;;;;;;;;;4.12;76.06;98946.06;1731750;82;20154;-78
2022/01/31 07:43:31;;;;;;;;;;;;;;;4.44;74.94;98955.23;1730118;81;20138;-77
2022/01/31 07:45:57;;;;;;;;;;;;;;;3.96;75.92;98946.66;1727852;82;20163;-78
2022/01/31 07:48:26;;;;;;;;;;;;;;;3.72;77.15;98939.33;1729518;82;20207;-78
2022/01/31 07:50:50;;;;;;;;;;;;;;;3.81;76.42;98933.25;1727398;81;20875;-78
2022/01/31 07:53:15;;;;;;;;;;;;;;;3.72;76.73;98921.05;1734489;81;20166;-77
2022/01/31 07:55:41;;;;;;;;;;;;;;;3.62;77.29;98921.55;1727819;82;20146;-76
2022/01/31 07:58:07;;;;;;;;;;;;;;;3.55;77.09;98935.17;1727443;82;20144;-80
2022/01/31 08:00:32;;;;;;;;;;;;;;;3.69;77.04;98918.73;1739000;81;21641;-77
2022/01/31 08:02:58;;;;;;;;;;;;;;;3.59;77.80;98933.94;1744912;81;21295;-80
2022/01/31 08:05:23;;;;;;;;;;;;;;;4.05;76.57;98918.86;1743398;81;20470;-78
2022/01/31 08:07:49;;;;;;;;;;;;;;;4.15;75.95;98915.72;1743316;81;20144;-78
2022/01/31 08:10:16;;;;;;;;;;;;;;;3.80;76.26;98908.09;1735959;81;20143;-78
2022/01/31 08:12:42;;;;;;;;;;;;;;;3.86;76.39;98920.58;1739207;81;20145;-78
2022/01/31 08:15:14;;;;;;;;;;;;;;;3.70;76.90;98939.47;1739500;81;21101;-78
2022/01/31 08:17:36;;;;;;;;;;;;;;;3.98;76.19;98919.08;1747160;81;20129;-78
2022/01/31 08:20:03;;;;;;;;;;;;;;;4.19;75.47;98921.47;1754192;81;20169;-78
2022/01/31 08:22:28;;;;;;;;;;;;;;;3.94;75.78;98924.59;1744303;81;20237;-79
2022/01/31 08:24:54;;;;;;;;;;;;;;;3.87;75.84;98942.28;1746516;81;20264;-78
2022/01/31 08:27:20;;;;;;;;;;;;;;;3.79;75.77;98919.50;1742042;81;21093;-78
2022/01/31 08:29:45;;;;;;;;;;;;;;;3.90;75.58;98940.23;1752769;81;20139;-79
2022/01/31 08:32:22;;;;;;;;;;;;;;;4.00;75.18;98923.70;1746838;81;20111;-78
2022/01/31 08:37:27;;;;;;;;;;;;;;;3.90;76.00;98918.49;1673470;83;20161;-78
2022/01/31 08:39:53;;;;;;;;;;;;;;;3.86;75.23;98894.47;1718288;80;21183;-77
2022/01/31 08:42:18;;;;;;;;;;;;;;;3.93;75.58;98911.22;1745754;81;20152;-78
2022/01/31 08:44:46;;;;;;;;;;;;;;;3.89;75.27;98904.63;1747782;81;20462;-79
2022/01/31 08:47:12;;;;;;;;;;;;;;;3.91;74.89;98902.69;1745837;81;20124;-79
2022/01/31 08:49:37;;;;;;;;;;;;;;;3.93;74.81;98891.62;1743803;81;20144;-78
2022/01/31 08:52:04;;;;;;;;;;;;;;;4.14;74.20;98915.38;1744093;81;21151;-78
2022/01/31 08:54:29;;;;;;;;;;;;;;;4.23;73.72;98900.12;1747768;81;20256;-78
2022/01/31 08:56:55;;;;;;;;;;;;;;;4.08;74.12;98896.36;1741627;81;20172;-79
2022/01/31 08:59:24;;;;;;;;;;;;;;;4.19;73.69;98898.77;1746852;81;20119;-78
2022/01/31 09:02:04;;;;;;;;;;;;;;;4.16;74.06;98902.17;1723102;80;20232;-79
2022/01/31 09:04:33;;;;;;;;;;;;;;;4.17;73.73;98900.72;1723580;82;20503;-79
2022/01/31 09:06:49;;;;;;;;;;;;;;;3.83;74.11;98909.12;1732344;82;20132;-80
2022/01/31 09:09:17;;;;;;;;;;;;;;;4.11;73.65;98892.16;1734894;82;20160;-79
2022/01/31 09:11:42;;;;;;;;;;;;;;;4.11;73.78;98889.54;1727599;82;20153;-79
2022/01/31 09:14:08;;;;;;;;;;;;;;;4.00;73.53;98893.66;1730124;82;20455;-78
2022/01/31 09:16:33;;;;;;;;;;;;;;;3.90;73.96;98891.92;1732526;80;21905;-79
2022/01/31 09:18:59;;;;;;;;;;;;;;;4.20;72.91;98883.44;1729305;81;20167;-78
2022/01/31 09:21:24;;;;;;;;;;;;;;;4.10;72.57;98887.89;1723851;81;21134;-79
2022/01/31 09:23:52;;;;;;;;;;;;;;;4.20;71.83;98876.91;1732935;81;20797;-80
2022/01/31 09:26:21;;;;;;;;;;;;;;;4.30;72.26;98884.22;1729895;82;20153;-79
2022/01/31 09:28:50;;;;;;;;;;;;;;;4.44;71.92;98867.67;1731499;82;21155;-80
2022/01/31 09:31:16;;;;;;;;;;;;;;;4.45;71.96;98868.02;1728507;82;20203;-78
2022/01/31 09:33:42;;;;;;;;;;;;;;;4.53;71.58;98858.13;1727609;82;20210;-78
2022/01/31 09:36:07;;;;;;;;;;;;;;;4.29;71.23;98868.68;1735105;82;20145;-78
2022/01/31 09:38:33;;;;;;;;;;;;;;;4.11;70.73;98880.39;1728867;82;20147;-78
2022/01/31 09:40:58;;;;;;;;;;;;;;;4.36;70.35;98840.16;1728484;80;20689;-78
2022/01/31 09:43:50;;;;;;;;;;;;;;;4.46;69.43;98846.95;1740583;82;20827;-78
2022/01/31 09:46:01;;;;;;;;;;;;;;;4.24;69.82;98839.53;1724270;82;20154;-77
2022/01/31 09:51:08;;;;;;;;;;;;;;;4.39;70.08;98850.31;1726258;81;20171;-78
2022/01/31 09:53:40;;;;;;;;;;;;;;;4.58;69.61;98865.02;1726899;82;21129;-77
2022/01/31 09:56:08;;;;;;;;;;;;;;;4.33;69.25;98861.36;1728529;82;20152;-77
2022/01/31 09:58:34;;;;;;;;;;;;;;;4.38;69.44;98839.52;1729953;82;20152;-77
2022/01/31 10:01:11;;;;;;;;;;;;;;;4.27;69.32;98824.87;1731313;81;20197;-77
2022/01/31 10:03:48;;;;;;;;;;;;;;;4.36;69.28;98838.36;1734573;81;20460;-80
2022/01/31 10:06:23;;;;;;;;;;;;;;;4.50;69.35;98840.94;1732395;81;21245;-79
2022/01/31 10:09:04;;;;;;;;;;;;;;;4.74;69.23;98818.11;1730425;81;20153;-78
2022/01/31 10:11:38;;;;;;;;;;;;;;;5.01;68.70;98821.06;1733477;82;20152;-80
2022/01/31 10:17:00;;;;;;;;;;;;;;;4.42;69.13;98831.72;1733915;81;20160;-79
2022/01/31 10:19:26;;;;;;;;;;;;;;;4.49;69.03;98818.40;1731332;81;21147;-79
2022/01/31 10:22:01;;;;;;;;;;;;;;;4.45;69.81;98818.35;1732875;82;20183;-79
2022/01/31 10:24:28;;;;;;;;;;;;;;;4.31;69.82;98855.78;1731243;81;20141;-78
2022/01/31 10:26:53;;;;;;;;;;;;;;;4.21;70.32;98830.22;1731982;82;20180;-78
2022/01/31 10:29:20;;;;;;;;;;;;;;;4.08;70.64;98829.25;1737383;82;20199;-78
2022/01/31 10:32:10;;;;;;;;;;;;;;;4.56;69.64;98806.35;1732031;82;21839;-79
2022/01/31 10:34:48;;;;;;;;;;;;;;;4.39;69.37;98813.23;1735587;82;20495;-79
2022/01/31 10:37:15;;;;;;;;;;;;;;;4.35;69.22;98821.52;1738877;81;20260;-80
2022/01/31 10:53:57;;;;;;;;;;;;;;;4.48;63.99;98804.98;1704559;82;20495;-78
2022/01/31 10:56:16;;;;;;;;;;;;;;;4.29;63.04;98777.22;1731475;82;20178;-79
2022/01/31 10:58:59;;;;;;;;;;;;;;;4.53;63.40;98781.81;1734268;81;21056;-80
2022/01/31 11:01:24;;;;;;;;;;;;;;;4.77;62.19;98777.73;1735562;81;20223;-79
2022/01/31 11:03:50;;;;;;;;;;;;;;;4.73;62.23;98781.65;1732906;82;20297;-79
2022/01/31 11:06:16;;;;;;;;;;;;;;;4.70;61.45;98772.30;1734319;82;20183;-79
2022/01/31 11:08:42;;;;;;;;;;;;;;;4.99;60.68;98766.78;1733865;82;20313;-79
2022/01/31 11:11:07;;;;;;;;;;;;;;;5.03;59.94;98786.44;1733035;81;21817;-79
2022/01/31 11:13:34;;;;;;;;;;;;;;;5.18;58.50;98779.31;1734386;82;20183;-79
2022/01/31 11:16:00;;;;;;;;;;;;;;;4.96;58.86;98765.78;1732995;82;20228;-78
2022/01/31 11:18:28;;;;;;;;;;;;;;;4.94;59.02;98776.89;1733558;82;20758;-78
2022/01/31 11:20:57;;;;;;;;;;;;;;;4.91;58.72;98771.97;1700759;82;38102;-78
2022/01/31 11:23:23;;;;;;;;;;;;;;;4.83;58.15;98773.20;1701972;82;20928;-78
2022/01/31 11:25:50;;;;;;;;;;;;;;;5.02;57.63;98786.59;1732518;82;20265;-79
2022/01/31 11:28:16;;;;;;;;;;;;;;;4.95;57.66;98781.13;1734970;82;20202;-78
2022/01/31 11:30:41;;;;;;;;;;;;;;;5.23;58.09;98786.20;1732964;81;21099;-78
2022/01/31 11:33:07;;;;;;;;;;;;;;;5.25;57.71;98788.20;1728591;81;20204;-78
2022/01/31 11:35:32;;;;;;;;;;;;;;;4.98;57.32;98783.44;1735522;82;21207;-78
2022/01/31 11:37:58;;;;;;;;;;;;;;;5.37;57.22;98775.14;1736773;82;20141;-78
2022/01/31 11:40:23;;;;;;;;;;;;;;;5.37;57.08;98790.84;1738381;82;20160;-79
2022/01/31 11:42:49;;;;;;;;;;;;;;;5.70;56.58;98771.37;1729744;82;20689;-78
2022/01/31 11:45:18;;;;;;;;;;;;;;;5.23;55.97;98791.44;1734606;82;20162;-78
2022/01/31 11:47:52;;;;;;;;;;;;;;;5.06;56.65;98813.26;1733238;82;21078;-78
2022/01/31 11:50:19;;;;;;;;;;;;;;;5.02;56.77;98792.63;1732822;82;20187;-78
2022/01/31 11:52:53;;;;;;;;;;;;;;;5.42;56.39;98790.88;1730153;80;20170;-78
2022/01/31 11:55:20;;;;;;;;;;;;;;;5.46;55.68;98804.00;1735814;81;20755;-78
2022/01/31 11:57:48;;;;;;;;;;;;;;;5.53;55.18;98794.05;1707495;82;20535;-79
2022/01/31 12:00:14;;;;;;;;;;;;;;;5.39;55.40;98792.84;1733022;82;21806;-78
2022/01/31 12:02:45;;;;;;;;;;;;;;;5.49;56.67;98786.16;1736571;82;20608;-79
2022/01/31 12:05:18;;;;;;;;;;;;;;;5.32;57.12;98789.20;1734693;81;20242;-79
2022/01/31 12:07:44;;;;;;;;;;;;;;;5.37;57.55;98779.56;1736628;81;20643;-80
2022/01/31 12:10:32;;;;;;;;;;;;;;;5.55;57.26;98793.89;1730768;81;20238;-79
2022/01/31 12:13:00;;;;;;;;;;;;;;;5.09;57.92;98801.98;1733438;81;20197;-78
2022/01/31 12:24:06;;;;;;;;;;;;;;;4.85;55.84;98810.51;1736615;82;20151;-79
2022/01/31 12:26:45;;;;;;;;;;;;;;;4.87;56.15;98794.16;1731523;81;21171;-77
2022/01/31 12:29:15;;;;;;;;;;;;;;;4.96;55.60;98785.89;1732984;81;20141;-78
2022/01/31 12:31:46;;;;;;;;;;;;;;;5.17;55.88;98775.05;1729848;81;20187;-79
2022/01/31 12:34:22;;;;;;;;;;;;;;;5.43;55.64;98779.44;1734148;80;20695;-80
2022/01/31 12:36:54;;;;;;;;;;;;;;;5.22;56.29;98767.57;1732610;81;20347;-80
2022/01/31 12:39:37;;;;;;;;;;;;;;;5.21;56.72;98781.63;1732440;80;21160;-77
2022/01/31 12:42:03;;;;;;;;;;;;;;;5.39;56.71;98773.20;1701576;81;20163;-79
2022/01/31 12:44:35;;;;;;;;;;;;;;;5.19;57.50;98766.57;1739060;81;20629;-79
2022/01/31 12:47:20;;;;;;;;;;;;;;;5.35;57.21;98760.09;1733651;81;20183;-79
2022/01/31 12:49:48;;;;;;;;;;;;;;;5.60;56.79;98762.80;1735988;81;20469;-79
2022/01/31 12:52:14;;;;;;;;;;;;;;;5.02;56.54;98780.86;1707591;81;21171;-79
2022/01/31 12:54:41;;;;;;;;;;;;;;;5.15;55.75;98780.94;1733235;82;20349;-79
2022/01/31 12:57:10;;;;;;;;;;;;;;;5.25;55.82;98784.27;1735606;82;21015;-79
2022/01/31 12:59:37;;;;;;;;;;;;;;;5.76;55.78;98769.89;1731091;82;20219;-79
2022/01/31 13:02:06;;;;;;;;;;;;;;;5.30;55.71;98766.30;1733701;80;20221;-79
2022/01/31 13:04:32;;;;;;;;;;;;;;;5.57;54.65;98782.77;1729226;81;21838;-79
2022/01/31 13:07:04;;;;;;;;;;;;;;;5.55;54.45;98782.11;1726183;82;20155;-80
2022/01/31 13:09:37;;;;;;;;;;;;;;;5.46;54.35;98780.44;1731011;82;20615;-79
2022/01/31 13:12:07;;;;;;;;;;;;;;;5.59;54.26;98778.18;1728847;82;20240;-80
2022/01/31 13:14:35;;;;;;;;;;;;;;;5.64;54.10;98791.64;1724159;82;20462;-78
2022/01/31 13:17:08;;;;;;;;;;;;;;;5.82;54.25;98785.47;1733724;79;21089;-78
2022/01/31 13:19:38;;;;;;;;;;;;;;;6.03;53.98;98787.20;1730646;82;20173;-78
2022/01/31 13:22:06;;;;;;;;;;;;;;;5.85;54.27;98790.39;1728178;82;20195;-79
2022/01/31 13:24:39;;;;;;;;;;;;;;;6.02;54.37;98790.78;1731693;82;21040;-80
2022/01/31 13:27:06;;;;;;;;;;;;;;;5.95;54.63;98793.70;1721561;82;20588;-79
2022/01/31 13:29:48;;;;;;;;;;;;;;;5.86;55.33;98805.14;1727682;82;21089;-78